Time;durP1;ratioP1;P1;durP2;ratioP2;P2;SDS_P1;SDS_P2;PMS_P1;PMS_P2;Temp;Humidity;BMP_temperature;BMP_pressure;BME280_temperature;BME280_humidity;BME280_pressure;Samples;Min_cycle;Max_cycle;Signal;HPM_P1;HPM_P2
2023/04/27 00:02:54;;;;;;;5.90;4.53;;;;;;;;;;10476812;28;20497;-84
2023/04/27 00:07:57;;;;;;;6.38;4.88;;;;;;;;;;10476541;28;20426;-84
2023/04/27 00:12:59;;;;;;;7.77;4.50;;;;;;;;;;10473799;28;20400;-84
2023/04/27 00:18:01;;;;;;;6.50;4.63;;;;;;;;;;10475926;28;20438;-84
2023/04/27 00:23:04;;;;;;;7.95;5.32;;;;;;;;;;10473272;28;20785;-84
2023/04/27 00:28:06;;;;;;;4.88;4.38;;;;;;;;;;10474068;28;20429;-83
2023/04/27 00:33:08;;;;;;;4.78;4.28;;;;;;;;;;10473254;28;20765;-83
2023/04/27 00:38:11;;;;;;;7.30;4.50;;;;;;;;;;10474515;28;20431;-83
2023/04/27 00:43:13;;;;;;;6.67;4.57;;;;;;;;;;10473272;28;20429;-83
2023/04/27 00:48:15;;;;;;;5.00;4.50;;;;;;;;;;10472657;28;20784;-83
2023/04/27 00:53:18;;;;;;;5.55;4.50;;;;;;;;;;10473761;28;20409;-82
2023/04/27 00:58:20;;;;;;;6.60;4.47;;;;;;;;;;10473253;28;20511;-83
2023/04/27 01:03:22;;;;;;;5.68;4.85;;;;;;;;;;10473621;28;20759;-83
2023/04/27 01:08:26;;;;;;;5.78;4.60;;;;;;;;;;10472634;28;20420;-84
2023/04/27 01:13:27;;;;;;;6.47;5.05;;;;;;;;;;10455179;28;20409;-84
2023/04/27 01:18:29;;;;;;;5.80;4.72;;;;;;;;;;10476271;28;20398;-83
2023/04/27 01:23:32;;;;;;;7.40;4.57;;;;;;;;;;10477113;28;20832;-83
2023/04/27 01:28:34;;;;;;;5.25;4.45;;;;;;;;;;10471177;28;20416;-84
2023/04/27 01:33:36;;;;;;;6.25;4.70;;;;;;;;;;10472930;28;20401;-83
2023/04/27 01:38:39;;;;;;;6.75;5.07;;;;;;;;;;10470384;28;20493;-83
2023/04/27 01:43:42;;;;;;;6.90;5.05;;;;;;;;;;10470606;28;20408;-83
2023/04/27 01:48:44;;;;;;;5.80;5.10;;;;;;;;;;10472303;28;20462;-83
2023/04/27 01:53:47;;;;;;;7.03;5.20;;;;;;;;;;10469183;28;20408;-83
2023/04/27 01:58:49;;;;;;;5.20;4.55;;;;;;;;;;10472403;28;20402;-83
2023/04/27 02:03:50;;;;;;;6.00;4.50;;;;;;;;;;10468360;28;20483;-84
2023/04/27 02:08:54;;;;;;;5.00;4.25;;;;;;;;;;10472267;28;20491;-83
2023/04/27 02:13:55;;;;;;;5.53;4.53;;;;;;;;;;10466655;28;20407;-84
2023/04/27 02:18:57;;;;;;;5.40;4.75;;;;;;;;;;10448113;28;20408;-84
2023/04/27 02:24:01;;;;;;;6.65;4.93;;;;;;;;;;10449708;28;20453;-84
2023/04/27 02:29:03;;;;;;;5.88;4.30;;;;;;;;;;10467762;28;20422;-83
2023/04/27 02:34:05;;;;;;;6.72;4.95;;;;;;;;;;10468010;28;20403;-84
2023/04/27 02:39:08;;;;;;;5.17;4.30;;;;;;;;;;10471047;28;20413;-83
2023/04/27 02:44:10;;;;;;;5.75;4.68;;;;;;;;;;10468383;28;20408;-83
2023/04/27 02:49:11;;;;;;;6.93;4.97;;;;;;;;;;10469464;28;20419;-84
2023/04/27 02:54:15;;;;;;;6.25;4.55;;;;;;;;;;10468302;28;20869;-83
2023/04/27 02:59:16;;;;;;;6.00;4.78;;;;;;;;;;10468817;28;20902;-83
2023/04/27 03:04:18;;;;;;;5.40;4.33;;;;;;;;;;10468380;28;20398;-84
2023/04/27 03:09:22;;;;;;;6.40;4.40;;;;;;;;;;10468800;28;20438;-84
2023/04/27 03:14:24;;;;;;;7.13;4.50;;;;;;;;;;10468294;28;20908;-83
2023/04/27 03:19:25;;;;;;;5.40;4.45;;;;;;;;;;10477060;28;20949;-83
2023/04/27 03:24:29;;;;;;;5.13;4.40;;;;;;;;;;10477081;28;20401;-83
2023/04/27 03:29:31;;;;;;;6.15;4.45;;;;;;;;;;10476959;28;20453;-83
2023/04/27 03:34:33;;;;;;;4.72;4.13;;;;;;;;;;10476402;28;20766;-82
2023/04/27 03:39:36;;;;;;;5.57;4.45;;;;;;;;;;10476446;28;20406;-84
2023/04/27 03:44:38;;;;;;;4.83;4.40;;;;;;;;;;10477068;28;20398;-83
2023/04/27 03:49:40;;;;;;;7.37;4.77;;;;;;;;;;10474056;28;20700;-83
2023/04/27 03:54:43;;;;;;;4.88;4.05;;;;;;;;;;10475372;28;20401;-83
2023/04/27 03:59:45;;;;;;;5.93;4.53;;;;;;;;;;10474585;28;21286;-83
2023/04/27 04:04:47;;;;;;;4.82;4.05;;;;;;;;;;10476944;28;20494;-83
2023/04/27 04:09:50;;;;;;;4.82;4.07;;;;;;;;;;10474311;28;20427;-83
2023/04/27 04:14:52;;;;;;;5.83;4.40;;;;;;;;;;10475765;28;20762;-83
2023/04/27 04:19:53;;;;;;;5.53;4.32;;;;;;;;;;10472646;28;20415;-83
2023/04/27 04:24:57;;;;;;;5.63;4.00;;;;;;;;;;10475196;28;20402;-82
2023/04/27 04:29:59;;;;;;;5.80;4.45;;;;;;;;;;10472598;28;20430;-83
2023/04/27 04:35:01;;;;;;;4.73;3.97;;;;;;;;;;10475195;28;20453;-83
2023/04/27 04:40:09;;;;;;;4.65;3.92;;;;;;;;;;10471756;28;20410;-83
2023/04/27 04:45:11;;;;;;;4.60;4.10;;;;;;;;;;10472013;28;20406;-83
2023/04/27 04:50:13;;;;;;;5.53;3.80;;;;;;;;;;10472199;28;20514;-83
2023/04/27 04:55:16;;;;;;;4.43;3.67;;;;;;;;;;10474607;28;20769;-83
2023/04/27 05:00:18;;;;;;;5.70;3.80;;;;;;;;;;10471773;28;20926;-83
2023/04/27 05:05:20;;;;;;;4.77;4.03;;;;;;;;;;10475317;28;20404;-83
2023/04/27 05:10:23;;;;;;;5.32;4.28;;;;;;;;;;10470647;28;20427;-83
2023/04/27 05:15:25;;;;;;;5.03;3.90;;;;;;;;;;10451810;28;21056;-83
2023/04/27 05:20:27;;;;;;;6.32;4.30;;;;;;;;;;10470034;28;20768;-83
2023/04/27 05:25:31;;;;;;;5.27;4.03;;;;;;;;;;10473738;28;20887;-83
2023/04/27 05:30:33;;;;;;;4.63;3.80;;;;;;;;;;10472907;28;20422;-83
2023/04/27 05:35:35;;;;;;;5.90;4.13;;;;;;;;;;10472090;28;20465;-83
2023/04/27 05:40:38;;;;;;;5.22;3.95;;;;;;;;;;10471921;28;20490;-83
2023/04/27 05:45:40;;;;;;;5.03;4.23;;;;;;;;;;10472760;28;20473;-84
2023/04/27 05:50:43;;;;;;;5.00;4.00;;;;;;;;;;10472447;28;20429;-84
2023/04/27 05:55:46;;;;;;;5.73;4.13;;;;;;;;;;10479623;28;20403;-84
2023/04/27 06:00:48;;;;;;;6.47;4.40;;;;;;;;;;10471628;28;20409;-84
2023/04/27 06:05:54;;;;;;;5.00;4.50;;;;;;;;;;10470537;28;20816;-85
2023/04/27 06:10:57;;;;;;;7.30;4.80;;;;;;;;;;10472954;28;20435;-85
2023/04/27 06:15:59;;;;;;;6.15;4.57;;;;;;;;;;10464855;28;20407;-84
2023/04/27 06:21:01;;;;;;;6.20;4.40;;;;;;;;;;10471264;28;20461;-81
2023/04/27 06:26:04;;;;;;;6.57;5.00;;;;;;;;;;10482274;28;20404;-85
2023/04/27 06:31:07;;;;;;;6.50;4.77;;;;;;;;;;10485468;28;20839;-84
2023/04/27 06:36:09;;;;;;;5.40;4.45;;;;;;;;;;10471929;28;20400;-85
2023/04/27 06:41:12;;;;;;;5.93;4.78;;;;;;;;;;10464932;28;20413;-81
2023/04/27 06:46:14;;;;;;;6.07;4.70;;;;;;;;;;10471710;28;20453;-82
2023/04/27 06:51:16;;;;;;;5.53;4.30;;;;;;;;;;10482451;28;20463;-83
2023/04/27 06:56:19;;;;;;;6.80;4.85;;;;;;;;;;10483815;28;20900;-85
2023/04/27 07:01:21;;;;;;;6.28;4.72;;;;;;;;;;10472427;28;20402;-84
2023/04/27 07:06:24;;;;;;;6.45;5.20;;;;;;;;;;10483795;28;20398;-82
2023/04/27 07:11:27;;;;;;;7.67;4.80;;;;;;;;;;10483112;28;21056;-82
2023/04/27 07:16:29;;;;;;;5.70;4.40;;;;;;;;;;10483122;28;21037;-81
2023/04/27 07:21:32;;;;;;;4.57;3.53;;;;;;;;;;10481840;28;20408;-81
2023/04/27 07:26:35;;;;;;;5.18;2.92;;;;;;;;;;10479958;28;20406;-81
2023/04/27 07:31:37;;;;;;;4.43;3.20;;;;;;;;;;10481335;28;20449;-82
2023/04/27 07:36:39;;;;;;;3.47;2.55;;;;;;;;;;10468872;28;20475;-85
2023/04/27 07:41:42;;;;;;;5.20;3.00;;;;;;;;;;10464571;28;20535;-84
2023/04/27 07:46:46;;;;;;;4.93;3.10;;;;;;;;;;10475784;28;20411;-85
2023/04/27 07:51:48;;;;;;;5.18;2.85;;;;;;;;;;10476082;28;20460;-86
2023/04/27 07:56:51;;;;;;;5.30;3.50;;;;;;;;;;10473761;28;20402;-86
2023/04/27 08:01:52;;;;;;;2.25;1.00;;;;;;;;;;10475949;28;20508;-86
2023/04/27 08:06:54;;;;;;;3.30;2.50;;;;;;;;;;10480582;28;20506;-86
2023/04/27 08:11:59;;;;;;;4.95;3.00;;;;;;;;;;10486291;28;20863;-85
2023/04/27 08:17:00;;;;;;;2.50;2.03;;;;;;;;;;10483243;28;20414;-86
2023/04/27 08:22:02;;;;;;;3.25;1.90;;;;;;;;;;10479705;28;20825;-86
2023/04/27 08:27:06;;;;;;;2.42;1.60;;;;;;;;;;10471510;28;20843;-87
2023/04/27 08:32:08;;;;;;;3.00;1.60;;;;;;;;;;10480942;28;20431;-85
2023/04/27 08:37:10;;;;;;;2.00;1.40;;;;;;;;;;10476476;28;20863;-86
2023/04/27 08:42:14;;;;;;;1.77;1.50;;;;;;;;;;10483058;28;20408;-86
2023/04/27 08:47:16;;;;;;;2.30;2.10;;;;;;;;;;10472812;28;20882;-86
2023/04/27 08:52:18;;;;;;;2.28;1.83;;;;;;;;;;10481478;28;20429;-86
2023/04/27 08:57:21;;;;;;;3.45;1.90;;;;;;;;;;10485651;28;20481;-86
2023/04/27 09:02:24;;;;;;;1.85;1.50;;;;;;;;;;10480259;28;20402;-86
2023/04/27 09:07:26;;;;;;;2.10;1.40;;;;;;;;;;10482531;28;20401;-86
2023/04/27 09:12:30;;;;;;;1.92;0.90;;;;;;;;;;10480471;28;20506;-86
2023/04/27 09:17:32;;;;;;;2.90;1.20;;;;;;;;;;10475114;28;20848;-86
2023/04/27 09:22:42;;;;;;;1.70;1.10;;;;;;;;;;10482681;28;20887;-86
2023/04/27 09:27:46;;;;;;;1.77;1.10;;;;;;;;;;10480747;28;20414;-86
2023/04/27 09:32:56;;;;;;;1.83;0.93;;;;;;;;;;10475977;28;20420;-86
2023/04/27 09:37:59;;;;;;;2.53;0.93;;;;;;;;;;10472381;28;20488;-86
2023/04/27 09:43:02;;;;;;;3.25;1.10;;;;;;;;;;10495887;28;20401;-89
2023/04/27 09:48:06;;;;;;;1.48;0.90;;;;;;;;;;10487436;28;20419;-81
2023/04/27 09:53:10;;;;;;;1.50;0.95;;;;;;;;;;10467693;28;20489;-82
2023/04/27 09:58:33;;;;;;;3.07;1.10;;;;;;;;;;10481538;28;20996;-86
2023/04/27 10:03:47;;;;;;;2.33;0.77;;;;;;;;;;10481838;28;20475;-86
2023/04/27 10:08:51;;;;;;;1.00;0.70;;;;;;;;;;10481658;28;20409;-85
2023/04/27 10:13:55;;;;;;;1.00;0.70;;;;;;;;;;10485615;28;20786;-85
2023/04/27 10:18:56;;;;;;;1.38;1.08;;;;;;;;;;10475184;28;20406;-83
2023/04/27 10:24:08;;;;;;;2.22;1.00;;;;;;;;;;10474136;28;20885;-85
2023/04/27 10:29:14;;;;;;;0.95;0.93;;;;;;;;;;10484918;28;20422;-88
2023/04/27 10:34:20;;;;;;;1.80;1.00;;;;;;;;;;10486438;28;20410;-86
2023/04/27 10:39:24;;;;;;;1.77;1.00;;;;;;;;;;10487600;28;20930;-87
2023/04/27 10:44:29;;;;;;;1.27;0.77;;;;;;;;;;10484982;28;20485;-88
2023/04/27 10:49:31;;;;;;;2.08;1.20;;;;;;;;;;10480080;28;20520;-87
2023/04/27 10:54:33;;;;;;;2.03;0.75;;;;;;;;;;10490965;28;20398;-89
2023/04/27 10:59:49;;;;;;;14.90;2.45;;;;;;;;;;10481425;28;20422;-85
2023/04/27 11:04:51;;;;;;;1.20;0.70;;;;;;;;;;10476205;28;20402;-85
2023/04/27 11:09:53;;;;;;;1.50;0.70;;;;;;;;;;10477617;28;20512;-84
2023/04/27 11:14:59;;;;;;;1.00;0.80;;;;;;;;;;10466320;28;20509;-85
2023/04/27 11:20:01;;;;;;;4.88;0.85;;;;;;;;;;10457338;28;20522;-84
2023/04/27 11:25:04;;;;;;;0.80;0.70;;;;;;;;;;10473858;28;20398;-85
2023/04/27 11:30:20;;;;;;;1.92;0.73;;;;;;;;;;10477136;28;20426;-86
2023/04/27 11:35:32;;;;;;;1.88;1.23;;;;;;;;;;10477364;28;20509;-84
2023/04/27 11:40:38;;;;;;;0.90;0.90;;;;;;;;;;10488057;28;20421;-85
2023/04/27 11:45:44;;;;;;;1.73;1.20;;;;;;;;;;10465740;28;20410;-85
2023/04/27 11:50:47;;;;;;;2.08;0.90;;;;;;;;;;10462817;28;20802;-85
2023/04/27 11:55:52;;;;;;;1.15;1.00;;;;;;;;;;10469355;28;20405;-84
2023/04/27 12:00:56;;;;;;;0.90;0.82;;;;;;;;;;10465930;28;20443;-85
2023/04/27 12:05:58;;;;;;;1.43;0.90;;;;;;;;;;10463029;28;20405;-85
2023/04/27 12:11:00;;;;;;;1.35;1.00;;;;;;;;;;10471096;28;20426;-85
2023/04/27 12:16:04;;;;;;;5.47;1.55;;;;;;;;;;10472170;28;21147;-84
2023/04/27 12:21:06;;;;;;;1.85;1.20;;;;;;;;;;10453238;28;20487;-85
2023/04/27 12:26:09;;;;;;;1.40;1.30;;;;;;;;;;10480008;28;20774;-85
2023/04/27 12:31:13;;;;;;;1.00;0.90;;;;;;;;;;10466011;28;20426;-85
2023/04/27 12:36:15;;;;;;;5.10;1.30;;;;;;;;;;10466147;28;20420;-84
2023/04/27 12:41:17;;;;;;;1.30;1.20;;;;;;;;;;10467235;28;20412;-85
2023/04/27 12:46:20;;;;;;;62.13;9.73;;;;;;;;;;10462851;28;20418;-84
2023/04/27 12:51:22;;;;;;;2.67;1.60;;;;;;;;;;10468215;28;20509;-84
2023/04/27 12:56:24;;;;;;;2.55;1.30;;;;;;;;;;10484772;28;20398;-85
2023/04/27 13:01:28;;;;;;;1.35;1.08;;;;;;;;;;10486555;28;20809;-84
2023/04/27 13:06:30;;;;;;;3.45;1.33;;;;;;;;;;10487153;28;20410;-85
2023/04/27 13:11:32;;;;;;;224.40;25.57;;;;;;;;;;10479165;28;20925;-85
2023/04/27 13:16:35;;;;;;;1.17;0.90;;;;;;;;;;10474623;28;20402;-85
2023/04/27 13:21:37;;;;;;;109.55;12.68;;;;;;;;;;10460018;28;20405;-85
2023/04/27 13:26:39;;;;;;;1.67;0.75;;;;;;;;;;10474666;28;20762;-85
2023/04/27 13:31:42;;;;;;;1.40;0.70;;;;;;;;;;10467086;28;20932;-84
2023/04/27 13:36:44;;;;;;;3.50;1.30;;;;;;;;;;10462296;28;20955;-84
2023/04/27 13:41:46;;;;;;;0.63;0.63;;;;;;;;;;10479525;28;20403;-85
2023/04/27 13:46:49;;;;;;;1.50;0.70;;;;;;;;;;10469291;28;20415;-85
2023/04/27 13:51:53;;;;;;;177.32;22.02;;;;;;;;;;10451668;22;20435;-84
2023/04/27 13:56:55;;;;;;;45.80;6.60;;;;;;;;;;10401404;28;20425;-84
2023/04/27 14:01:58;;;;;;;2.78;0.90;;;;;;;;;;10414146;28;20483;-84
2023/04/27 14:07:00;;;;;;;73.22;9.60;;;;;;;;;;10423271;28;20459;-84
2023/04/27 14:12:02;;;;;;;3.40;1.13;;;;;;;;;;10404255;28;20421;-84
2023/04/27 14:17:05;;;;;;;2.20;0.68;;;;;;;;;;10417665;28;20478;-85
2023/04/27 14:22:09;;;;;;;6.53;1.27;;;;;;;;;;10401736;28;20506;-84
2023/04/27 14:27:11;;;;;;;0.80;0.67;;;;;;;;;;10422003;28;20411;-85
2023/04/27 14:32:15;;;;;;;4.15;0.82;;;;;;;;;;10397726;28;20761;-85
2023/04/27 14:37:17;;;;;;;1.10;0.60;;;;;;;;;;10418906;28;20498;-85
2023/04/27 14:42:19;;;;;;;2.13;0.90;;;;;;;;;;10414162;28;20430;-84
2023/04/27 17:07:21;;;;;;;1.13;0.90;;;;;;;;;;10447818;28;20394;-85
2023/04/27 17:12:23;;;;;;;2.22;0.90;;;;;;;;;;10484438;28;20420;-85
2023/04/27 17:17:25;;;;;;;2.00;1.10;;;;;;;;;;10485050;28;20413;-85
2023/04/27 17:22:29;;;;;;;1.65;1.08;;;;;;;;;;10488528;28;20434;-85
2023/04/27 17:27:31;;;;;;;2.17;0.80;;;;;;;;;;10475582;28;20413;-85
2023/04/27 17:32:33;;;;;;;1.93;0.80;;;;;;;;;;10479565;28;20484;-85
2023/04/27 17:37:37;;;;;;;1.80;0.90;;;;;;;;;;10473846;28;20406;-85
2023/04/27 17:42:39;;;;;;;4.17;1.10;;;;;;;;;;10482080;28;20406;-85
2023/04/27 17:47:41;;;;;;;0.98;0.73;;;;;;;;;;10476469;28;20449;-85
2023/04/27 17:52:46;;;;;;;0.85;0.77;;;;;;;;;;10479899;28;20424;-85
2023/04/27 17:57:48;;;;;;;1.50;0.90;;;;;;;;;;10480474;28;20832;-85
2023/04/27 18:02:50;;;;;;;1.45;0.93;;;;;;;;;;10482505;28;20433;-85
2023/04/27 18:07:54;;;;;;;3.80;1.13;;;;;;;;;;10480856;28;20414;-85
2023/04/27 18:12:56;;;;;;;1.02;0.60;;;;;;;;;;10481384;28;20936;-86
2023/04/27 18:17:59;;;;;;;2.10;0.80;;;;;;;;;;10478865;28;20406;-85
2023/04/27 18:23:03;;;;;;;2.13;0.80;;;;;;;;;;10467827;28;20407;-86
2023/04/27 18:28:05;;;;;;;1.92;1.02;;;;;;;;;;10473483;28;20441;-86
2023/04/27 18:33:06;;;;;;;1.60;1.20;;;;;;;;;;10442790;28;20503;-86
2023/04/27 18:38:10;;;;;;;2.07;1.40;;;;;;;;;;10465246;28;20485;-85
2023/04/27 18:43:12;;;;;;;2.55;1.70;;;;;;;;;;10448050;28;20497;-85
2023/04/27 18:48:13;;;;;;;2.85;2.15;;;;;;;;;;10441923;28;20804;-86
2023/04/27 18:53:17;;;;;;;5.80;3.07;;;;;;;;;;10442737;28;20452;-85
2023/04/27 18:58:19;;;;;;;4.38;2.60;;;;;;;;;;10457921;28;20409;-86
2023/04/27 19:03:20;;;;;;;3.13;2.00;;;;;;;;;;10461917;28;20403;-86
2023/04/27 19:08:23;;;;;;;3.17;1.80;;;;;;;;;;10464055;28;20501;-85
2023/04/27 19:13:25;;;;;;;2.75;2.00;;;;;;;;;;10457247;28;20427;-86
2023/04/27 19:18:27;;;;;;;3.95;2.58;;;;;;;;;;10463502;28;20967;-86
2023/04/27 19:23:30;;;;;;;5.80;2.67;;;;;;;;;;10465076;28;20430;-86
2023/04/27 19:28:32;;;;;;;3.42;1.83;;;;;;;;;;10464267;28;20420;-85
2023/04/27 19:33:34;;;;;;;4.22;2.20;;;;;;;;;;10463071;28;20419;-86
2023/04/27 19:38:37;;;;;;;3.60;2.15;;;;;;;;;;10462051;28;20402;-86
2023/04/27 19:43:39;;;;;;;5.57;1.88;;;;;;;;;;10464016;28;20912;-87
2023/04/27 19:48:41;;;;;;;3.90;2.15;;;;;;;;;;10462130;28;20469;-85
2023/04/27 19:53:44;;;;;;;3.05;2.00;;;;;;;;;;10463389;28;20422;-85
2023/04/27 19:58:46;;;;;;;2.70;1.90;;;;;;;;;;10465251;28;20437;-86
2023/04/27 20:03:48;;;;;;;2.10;1.83;;;;;;;;;;10474848;28;20445;-86
2023/04/27 20:08:51;;;;;;;3.78;2.38;;;;;;;;;;10476586;28;20509;-85
2023/04/27 20:13:53;;;;;;;3.15;2.10;;;;;;;;;;10475097;28;21198;-85
2023/04/27 20:18:55;;;;;;;3.97;2.30;;;;;;;;;;10475858;28;20437;-87
2023/04/27 20:23:58;;;;;;;5.20;2.20;;;;;;;;;;10474643;28;20400;-87
2023/04/27 20:29:00;;;;;;;3.53;2.50;;;;;;;;;;10476295;28;20485;-87
2023/04/27 20:34:02;;;;;;;4.13;3.17;;;;;;;;;;10477198;28;20424;-87
2023/04/27 20:39:05;;;;;;;5.30;2.83;;;;;;;;;;10476732;28;20854;-87
2023/04/27 20:44:07;;;;;;;3.47;3.00;;;;;;;;;;10474990;28;20404;-88
2023/04/27 20:49:08;;;;;;;4.40;3.05;;;;;;;;;;10479364;28;20473;-87
2023/04/27 20:54:11;;;;;;;8.93;4.85;;;;;;;;;;10480982;28;20417;-88
2023/04/27 20:59:13;;;;;;;6.97;4.07;;;;;;;;;;10473230;28;20880;-88
2023/04/27 21:04:15;;;;;;;8.30;5.47;;;;;;;;;;10476439;28;20398;-87
2023/04/27 21:09:18;;;;;;;4.68;3.50;;;;;;;;;;10453077;28;20443;-87
2023/04/27 21:14:20;;;;;;;6.17;3.97;;;;;;;;;;10472489;28;20426;-87
2023/04/27 21:19:22;;;;;;;10.85;5.88;;;;;;;;;;10472519;28;20451;-87
2023/04/27 21:24:25;;;;;;;12.52;6.32;;;;;;;;;;10475313;28;20398;-87
2023/04/27 21:29:27;;;;;;;7.72;5.25;;;;;;;;;;10472415;28;20419;-87
2023/04/27 21:34:29;;;;;;;25.80;11.33;;;;;;;;;;10474150;28;20916;-84
2023/04/27 21:39:34;;;;;;;13.48;8.38;;;;;;;;;;10486371;28;20394;-86
2023/04/27 21:44:36;;;;;;;9.83;6.53;;;;;;;;;;10493715;28;20468;-87
2023/04/27 21:49:38;;;;;;;10.93;6.67;;;;;;;;;;10491422;28;20422;-87
2023/04/27 21:54:41;;;;;;;11.18;6.65;;;;;;;;;;10488914;28;21059;-85
2023/04/27 21:59:43;;;;;;;9.00;5.73;;;;;;;;;;10489415;28;20398;-86
2023/04/27 22:04:52;;;;;;;8.88;6.50;;;;;;;;;;10486773;28;20476;-86
2023/04/27 22:09:55;;;;;;;9.20;6.13;;;;;;;;;;10485177;28;21034;-86
2023/04/27 22:14:57;;;;;;;9.47;6.40;;;;;;;;;;10487518;28;20930;-86
2023/04/27 22:20:03;;;;;;;8.40;6.57;;;;;;;;;;10484985;28;20977;-86
2023/04/27 22:25:08;;;;;;;10.00;6.60;;;;;;;;;;10483760;28;20398;-87
2023/04/27 22:30:10;;;;;;;9.18;6.32;;;;;;;;;;10466813;28;20801;-86
2023/04/27 22:35:14;;;;;;;10.20;7.37;;;;;;;;;;10448339;28;20864;-86
2023/04/27 22:40:18;;;;;;;8.68;6.85;;;;;;;;;;10475111;28;20400;-86
2023/04/27 22:45:20;;;;;;;9.45;6.90;;;;;;;;;;10471395;28;20497;-86
2023/04/27 22:50:21;;;;;;;9.57;6.93;;;;;;;;;;10448835;28;20400;-86
2023/04/27 22:55:25;;;;;;;8.73;7.32;;;;;;;;;;10447068;28;20904;-86
2023/04/27 23:00:26;;;;;;;12.10;7.50;;;;;;;;;;10460386;28;20410;-86
2023/04/27 23:05:28;;;;;;;15.90;9.70;;;;;;;;;;10470979;28;20409;-86
2023/04/27 23:10:33;;;;;;;14.10;8.98;;;;;;;;;;10468343;28;20407;-86
2023/04/27 23:15:35;;;;;;;13.30;8.27;;;;;;;;;;10470252;28;21006;-86
2023/04/27 23:20:37;;;;;;;14.25;8.52;;;;;;;;;;10467567;28;20410;-85
2023/04/27 23:25:40;;;;;;;12.27;8.80;;;;;;;;;;10468350;28;20488;-86
2023/04/27 23:30:42;;;;;;;9.68;7.00;;;;;;;;;;10471344;28;20897;-86
2023/04/27 23:35:44;;;;;;;8.60;6.57;;;;;;;;;;10477213;28;20427;-86
2023/04/27 23:40:47;;;;;;;7.85;6.15;;;;;;;;;;10486144;28;20908;-86
2023/04/27 23:45:50;;;;;;;7.15;5.65;;;;;;;;;;10477345;28;20447;-86
2023/04/27 23:50:59;;;;;;;6.20;5.60;;;;;;;;;;10476139;28;20472;-86
2023/04/27 23:56:02;;;;;;;7.50;5.60;;;;;;;;;;10478032;28;20424;-86
